sensor_id;sensor_type;location;lat;lon;timestamp;temperature;humidity
26803;DHT22;14378;51.796;5.808;2022-09-09T00:18:22;16.80;99.90
26803;DHT22;14378;51.796;5.808;2022-09-09T00:22:51;16.90;99.90
26803;DHT22;14378;51.796;5.808;2022-09-09T00:25:11;16.90;99.90
26803;DHT22;14378;51.796;5.808;2022-09-09T00:27:41;16.80;99.90
26803;DHT22;14378;51.796;5.808;2022-09-09T00:29:51;16.90;99.90
26803;DHT22;14378;51.796;5.808;2022-09-09T00:32:00;16.90;99.90
26803;DHT22;14378;51.796;5.808;2022-09-09T00:36:18;16.90;99.90
26803;DHT22;14378;51.796;5.808;2022-09-09T00:38:47;16.90;99.90
26803;DHT22;14378;51.796;5.808;2022-09-09T00:40:53;16.80;99.90
26803;DHT22;14378;51.796;5.808;2022-09-09T00:47:46;16.70;99.90
26803;DHT22;14378;51.796;5.808;2022-09-09T00:50:06;16.70;99.90
26803;DHT22;14378;51.796;5.808;2022-09-09T00:57:25;16.60;99.90
26803;DHT22;14378;51.796;5.808;2022-09-09T01:01:51;16.60;99.90
26803;DHT22;14378;51.796;5.808;2022-09-09T01:03:56;16.50;99.90
26803;DHT22;14378;51.796;5.808;2022-09-09T01:06:22;16.50;99.90
26803;DHT22;14378;51.796;5.808;2022-09-09T01:09:02;16.50;99.90
26803;DHT22;14378;51.796;5.808;2022-09-09T01:11:14;16.50;99.90
26803;DHT22;14378;51.796;5.808;2022-09-09T01:13:30;16.50;99.90
26803;DHT22;14378;51.796;5.808;2022-09-09T01:15:35;16.40;99.90
26803;DHT22;14378;51.796;5.808;2022-09-09T01:17:50;16.50;99.90
26803;DHT22;14378;51.796;5.808;2022-09-09T01:20:03;16.40;99.90
26803;DHT22;14378;51.796;5.808;2022-09-09T01:23:44;16.40;99.90
26803;DHT22;14378;51.796;5.808;2022-09-09T01:25:27;16.40;99.90
26803;DHT22;14378;51.796;5.808;2022-09-09T01:27:52;16.40;99.90
26803;DHT22;14378;51.796;5.808;2022-09-09T01:30:15;16.30;99.90
26803;DHT22;14378;51.796;5.808;2022-09-09T01:32:37;16.30;99.90
26803;DHT22;14378;51.796;5.808;2022-09-09T01:34:40;16.30;99.90
26803;DHT22;14378;51.796;5.808;2022-09-09T01:38:52;16.30;99.90
26803;DHT22;14378;51.796;5.808;2022-09-09T01:40:54;16.20;99.90
26803;DHT22;14378;51.796;5.808;2022-09-09T01:43:02;16.20;99.90
26803;DHT22;14378;51.796;5.808;2022-09-09T01:45:04;16.20;99.90
26803;DHT22;14378;51.796;5.808;2022-09-09T01:47:06;16.20;99.90
26803;DHT22;14378;51.796;5.808;2022-09-09T01:49:08;16.20;99.90
26803;DHT22;14378;51.796;5.808;2022-09-09T01:51:11;16.10;99.90
26803;DHT22;14378;51.796;5.808;2022-09-09T01:53:13;16.20;99.90
26803;DHT22;14378;51.796;5.808;2022-09-09T01:55:19;16.10;99.90
26803;DHT22;14378;51.796;5.808;2022-09-09T01:57:41;16.10;99.90
26803;DHT22;14378;51.796;5.808;2022-09-09T02:00:05;16.10;99.90
26803;DHT22;14378;51.796;5.808;2022-09-09T02:04:42;16.00;99.90
26803;DHT22;14378;51.796;5.808;2022-09-09T02:06:54;16.10;99.90
26803;DHT22;14378;51.796;5.808;2022-09-09T02:09:11;16.10;99.90
26803;DHT22;14378;51.796;5.808;2022-09-09T02:11:24;16.00;99.90
26803;DHT22;14378;51.796;5.808;2022-09-09T02:13:35;16.00;99.90
26803;DHT22;14378;51.796;5.808;2022-09-09T02:17:45;16.00;99.90
26803;DHT22;14378;51.796;5.808;2022-09-09T02:19:59;16.00;99.90
26803;DHT22;14378;51.796;5.808;2022-09-09T02:22:31;16.00;99.90
26803;DHT22;14378;51.796;5.808;2022-09-09T02:24:37;16.00;99.90
26803;DHT22;14378;51.796;5.808;2022-09-09T02:26:50;16.00;99.90
26803;DHT22;14378;51.796;5.808;2022-09-09T02:28:55;15.90;99.90
26803;DHT22;14378;51.796;5.808;2022-09-09T02:30:57;16.00;99.90
26803;DHT22;14378;51.796;5.808;2022-09-09T02:33:07;16.00;99.90
26803;DHT22;14378;51.796;5.808;2022-09-09T02:35:23;16.00;99.90
26803;DHT22;14378;51.796;5.808;2022-09-09T02:37:32;16.00;99.90
26803;DHT22;14378;51.796;5.808;2022-09-09T02:39:36;15.90;99.90
26803;DHT22;14378;51.796;5.808;2022-09-09T02:41:40;15.90;99.90
26803;DHT22;14378;51.796;5.808;2022-09-09T02:43:41;15.90;99.90
26803;DHT22;14378;51.796;5.808;2022-09-09T02:50:27;15.90;99.90
26803;DHT22;14378;51.796;5.808;2022-09-09T02:54:59;15.90;99.90
26803;DHT22;14378;51.796;5.808;2022-09-09T02:59:16;15.90;99.90
26803;DHT22;14378;51.796;5.808;2022-09-09T03:01:17;15.90;99.90
26803;DHT22;14378;51.796;5.808;2022-09-09T03:03:19;15.90;99.90
26803;DHT22;14378;51.796;5.808;2022-09-09T03:05:26;15.90;99.90
26803;DHT22;14378;51.796;5.808;2022-09-09T03:07:29;15.90;99.90
26803;DHT22;14378;51.796;5.808;2022-09-09T03:09:32;15.90;99.90
26803;DHT22;14378;51.796;5.808;2022-09-09T03:11:33;15.90;99.90
26803;DHT22;14378;51.796;5.808;2022-09-09T03:13:35;15.80;99.90
26803;DHT22;14378;51.796;5.808;2022-09-09T03:15:36;15.80;99.90
26803;DHT22;14378;51.796;5.808;2022-09-09T03:17:40;15.80;99.90
26803;DHT22;14378;51.796;5.808;2022-09-09T03:19:41;15.80;99.90
26803;DHT22;14378;51.796;5.808;2022-09-09T03:21:47;15.80;99.90
26803;DHT22;14378;51.796;5.808;2022-09-09T03:23:50;15.80;99.90
26803;DHT22;14378;51.796;5.808;2022-09-09T03:25:51;15.80;99.90
26803;DHT22;14378;51.796;5.808;2022-09-09T03:28:03;15.80;99.90
26803;DHT22;14378;51.796;5.808;2022-09-09T03:30:06;15.80;99.90
26803;DHT22;14378;51.796;5.808;2022-09-09T03:32:08;15.80;99.90
26803;DHT22;14378;51.796;5.808;2022-09-09T03:34:12;15.80;99.90
26803;DHT22;14378;51.796;5.808;2022-09-09T03:36:15;15.80;99.90
26803;DHT22;14378;51.796;5.808;2022-09-09T03:38:17;15.80;99.90
26803;DHT22;14378;51.796;5.808;2022-09-09T03:40:18;15.80;99.90
26803;DHT22;14378;51.796;5.808;2022-09-09T03:42:21;15.80;99.90
26803;DHT22;14378;51.796;5.808;2022-09-09T03:44:27;15.80;99.90
26803;DHT22;14378;51.796;5.808;2022-09-09T03:46:35;15.80;99.90
26803;DHT22;14378;51.796;5.808;2022-09-09T03:48:55;15.80;99.90
26803;DHT22;14378;51.796;5.808;2022-09-09T03:50:56;15.80;99.90
26803;DHT22;14378;51.796;5.808;2022-09-09T03:53:03;15.80;99.90
26803;DHT22;14378;51.796;5.808;2022-09-09T03:55:05;15.80;99.90
26803;DHT22;14378;51.796;5.808;2022-09-09T03:57:06;15.80;99.90
26803;DHT22;14378;51.796;5.808;2022-09-09T03:59:11;15.90;99.90
26803;DHT22;14378;51.796;5.808;2022-09-09T04:01:13;15.90;99.90
26803;DHT22;14378;51.796;5.808;2022-09-09T04:03:16;15.90;99.90
26803;DHT22;14378;51.796;5.808;2022-09-09T04:05:21;15.90;99.90
26803;DHT22;14378;51.796;5.808;2022-09-09T04:07:24;15.90;99.90
26803;DHT22;14378;51.796;5.808;2022-09-09T04:09:26;15.90;99.90
26803;DHT22;14378;51.796;5.808;2022-09-09T04:11:28;15.90;99.90
26803;DHT22;14378;51.796;5.808;2022-09-09T04:13:37;15.90;99.90
26803;DHT22;14378;51.796;5.808;2022-09-09T04:15:42;15.90;99.90
26803;DHT22;14378;51.796;5.808;2022-09-09T04:17:43;15.90;99.90
26803;DHT22;14378;51.796;5.808;2022-09-09T04:19:45;16.00;99.90
26803;DHT22;14378;51.796;5.808;2022-09-09T04:21:50;16.00;99.90
26803;DHT22;14378;51.796;5.808;2022-09-09T04:23:53;16.00;99.90
26803;DHT22;14378;51.796;5.808;2022-09-09T04:25:57;16.00;99.90
26803;DHT22;14378;51.796;5.808;2022-09-09T04:27:58;16.00;99.90
26803;DHT22;14378;51.796;5.808;2022-09-09T04:30:07;16.00;99.90
26803;DHT22;14378;51.796;5.808;2022-09-09T04:32:11;16.00;99.90
26803;DHT22;14378;51.796;5.808;2022-09-09T04:34:13;16.00;99.90
26803;DHT22;14378;51.796;5.808;2022-09-09T04:36:16;16.00;99.90
26803;DHT22;14378;51.796;5.808;2022-09-09T04:38:20;16.00;99.90
26803;DHT22;14378;51.796;5.808;2022-09-09T04:40:24;16.10;99.90
26803;DHT22;14378;51.796;5.808;2022-09-09T04:42:26;16.10;99.90
26803;DHT22;14378;51.796;5.808;2022-09-09T04:44:28;16.10;99.90
26803;DHT22;14378;51.796;5.808;2022-09-09T04:46:34;16.10;99.90
26803;DHT22;14378;51.796;5.808;2022-09-09T04:48:39;16.10;99.90
26803;DHT22;14378;51.796;5.808;2022-09-09T04:50:42;16.10;99.90
26803;DHT22;14378;51.796;5.808;2022-09-09T04:52:46;16.20;99.90
26803;DHT22;14378;51.796;5.808;2022-09-09T04:54:47;16.10;99.90
26803;DHT22;14378;51.796;5.808;2022-09-09T04:56:52;16.20;99.90
26803;DHT22;14378;51.796;5.808;2022-09-09T04:58:54;16.20;99.90
26803;DHT22;14378;51.796;5.808;2022-09-09T05:01:07;16.20;99.90
26803;DHT22;14378;51.796;5.808;2022-09-09T05:03:11;16.20;99.90
26803;DHT22;14378;51.796;5.808;2022-09-09T05:05:18;16.20;99.90
26803;DHT22;14378;51.796;5.808;2022-09-09T05:07:21;16.20;99.90
26803;DHT22;14378;51.796;5.808;2022-09-09T05:09:26;16.20;99.90
26803;DHT22;14378;51.796;5.808;2022-09-09T05:11:30;16.20;99.90
26803;DHT22;14378;51.796;5.808;2022-09-09T05:13:40;16.20;99.90
26803;DHT22;14378;51.796;5.808;2022-09-09T05:15:41;16.20;99.90
26803;DHT22;14378;51.796;5.808;2022-09-09T05:17:46;16.20;99.90
26803;DHT22;14378;51.796;5.808;2022-09-09T05:19:50;16.20;99.90
26803;DHT22;14378;51.796;5.808;2022-09-09T05:21:53;16.20;99.90
26803;DHT22;14378;51.796;5.808;2022-09-09T05:24:01;16.20;99.90
26803;DHT22;14378;51.796;5.808;2022-09-09T05:26:04;16.20;99.90
26803;DHT22;14378;51.796;5.808;2022-09-09T05:28:09;16.20;99.90
26803;DHT22;14378;51.796;5.808;2022-09-09T05:30:12;16.20;99.90
26803;DHT22;14378;51.796;5.808;2022-09-09T05:32:13;16.20;99.90
26803;DHT22;14378;51.796;5.808;2022-09-09T05:34:17;16.20;99.90
26803;DHT22;14378;51.796;5.808;2022-09-09T05:36:20;16.20;99.90
26803;DHT22;14378;51.796;5.808;2022-09-09T05:38:25;16.20;99.90
26803;DHT22;14378;51.796;5.808;2022-09-09T05:40:26;16.20;99.90
26803;DHT22;14378;51.796;5.808;2022-09-09T05:42:32;16.20;99.90
26803;DHT22;14378;51.796;5.808;2022-09-09T05:44:35;16.30;99.90
26803;DHT22;14378;51.796;5.808;2022-09-09T05:46:39;16.30;99.90
26803;DHT22;14378;51.796;5.808;2022-09-09T05:48:46;16.30;99.90
26803;DHT22;14378;51.796;5.808;2022-09-09T05:50:53;16.30;99.90
26803;DHT22;14378;51.796;5.808;2022-09-09T05:52:56;16.30;99.90
26803;DHT22;14378;51.796;5.808;2022-09-09T05:54:57;16.30;99.90
26803;DHT22;14378;51.796;5.808;2022-09-09T05:57:00;16.40;99.90
26803;DHT22;14378;51.796;5.808;2022-09-09T05:59:03;16.40;99.90
26803;DHT22;14378;51.796;5.808;2022-09-09T06:01:08;16.40;99.90
26803;DHT22;14378;51.796;5.808;2022-09-09T06:03:13;16.40;99.90
26803;DHT22;14378;51.796;5.808;2022-09-09T06:05:14;16.50;99.90
26803;DHT22;14378;51.796;5.808;2022-09-09T06:07:16;16.50;99.90
26803;DHT22;14378;51.796;5.808;2022-09-09T06:09:21;16.50;99.90
26803;DHT22;14378;51.796;5.808;2022-09-09T06:11:27;16.50;99.90
26803;DHT22;14378;51.796;5.808;2022-09-09T06:13:37;16.50;99.90
26803;DHT22;14378;51.796;5.808;2022-09-09T06:15:51;16.50;99.90
26803;DHT22;14378;51.796;5.808;2022-09-09T06:17:55;16.50;99.90
26803;DHT22;14378;51.796;5.808;2022-09-09T06:19:59;16.50;99.90
26803;DHT22;14378;51.796;5.808;2022-09-09T06:22:01;16.50;99.90
26803;DHT22;14378;51.796;5.808;2022-09-09T06:24:12;16.50;99.90
26803;DHT22;14378;51.796;5.808;2022-09-09T06:26:24;16.50;99.90
26803;DHT22;14378;51.796;5.808;2022-09-09T06:28:27;16.50;99.90
26803;DHT22;14378;51.796;5.808;2022-09-09T06:30:28;16.50;99.90
26803;DHT22;14378;51.796;5.808;2022-09-09T06:32:34;16.40;99.90
26803;DHT22;14378;51.796;5.808;2022-09-09T06:34:38;16.40;99.90
26803;DHT22;14378;51.796;5.808;2022-09-09T06:36:42;16.40;99.90
26803;DHT22;14378;51.796;5.808;2022-09-09T06:38:47;16.50;99.90
26803;DHT22;14378;51.796;5.808;2022-09-09T06:40:53;16.50;99.90
26803;DHT22;14378;51.796;5.808;2022-09-09T06:43:00;16.50;99.90
26803;DHT22;14378;51.796;5.808;2022-09-09T06:45:14;16.60;99.90
26803;DHT22;14378;51.796;5.808;2022-09-09T06:47:24;16.60;99.90
26803;DHT22;14378;51.796;5.808;2022-09-09T06:49:26;16.60;99.90
26803;DHT22;14378;51.796;5.808;2022-09-09T06:51:30;16.60;99.90
26803;DHT22;14378;51.796;5.808;2022-09-09T06:53:34;16.60;99.90
26803;DHT22;14378;51.796;5.808;2022-09-09T06:55:36;16.60;99.90
26803;DHT22;14378;51.796;5.808;2022-09-09T06:57:38;16.70;99.90
26803;DHT22;14378;51.796;5.808;2022-09-09T06:59:45;16.70;99.90
26803;DHT22;14378;51.796;5.808;2022-09-09T07:01:47;16.70;99.90
26803;DHT22;14378;51.796;5.808;2022-09-09T07:03:54;16.70;99.90
26803;DHT22;14378;51.796;5.808;2022-09-09T07:05:56;16.80;99.90
26803;DHT22;14378;51.796;5.808;2022-09-09T07:07:59;16.80;99.90
26803;DHT22;14378;51.796;5.808;2022-09-09T07:10:02;16.80;99.90
26803;DHT22;14378;51.796;5.808;2022-09-09T07:12:06;16.90;99.90
26803;DHT22;14378;51.796;5.808;2022-09-09T07:14:11;16.90;99.90
26803;DHT22;14378;51.796;5.808;2022-09-09T07:16:18;16.90;99.90
26803;DHT22;14378;51.796;5.808;2022-09-09T07:18:20;16.90;99.90
26803;DHT22;14378;51.796;5.808;2022-09-09T07:20:21;16.90;99.90
26803;DHT22;14378;51.796;5.808;2022-09-09T07:22:24;16.90;99.90
26803;DHT22;14378;51.796;5.808;2022-09-09T07:24:26;17.10;99.90
26803;DHT22;14378;51.796;5.808;2022-09-09T07:26:33;17.10;99.90
26803;DHT22;14378;51.796;5.808;2022-09-09T07:28:36;17.10;99.90
26803;DHT22;14378;51.796;5.808;2022-09-09T07:30:38;17.10;99.90
26803;DHT22;14378;51.796;5.808;2022-09-09T07:32:39;17.10;99.90
26803;DHT22;14378;51.796;5.808;2022-09-09T07:34:40;17.20;99.90
26803;DHT22;14378;51.796;5.808;2022-09-09T07:36:42;17.20;99.90
26803;DHT22;14378;51.796;5.808;2022-09-09T07:38:51;17.20;99.90
26803;DHT22;14378;51.796;5.808;2022-09-09T07:40:53;17.30;99.90
26803;DHT22;14378;51.796;5.808;2022-09-09T07:42:56;17.40;99.90
26803;DHT22;14378;51.796;5.808;2022-09-09T07:44:57;17.40;99.90
26803;DHT22;14378;51.796;5.808;2022-09-09T07:47:02;17.40;99.90
26803;DHT22;14378;51.796;5.808;2022-09-09T07:49:12;17.50;99.90
26803;DHT22;14378;51.796;5.808;2022-09-09T07:51:17;17.50;99.90
26803;DHT22;14378;51.796;5.808;2022-09-09T07:53:21;17.60;99.90
26803;DHT22;14378;51.796;5.808;2022-09-09T07:55:24;17.70;99.90
26803;DHT22;14378;51.796;5.808;2022-09-09T07:57:28;17.80;99.90
26803;DHT22;14378;51.796;5.808;2022-09-09T07:59:35;17.80;99.90
26803;DHT22;14378;51.796;5.808;2022-09-09T08:01:47;17.80;99.90
26803;DHT22;14378;51.796;5.808;2022-09-09T08:03:55;17.80;99.90
26803;DHT22;14378;51.796;5.808;2022-09-09T08:06:04;17.90;99.90
26803;DHT22;14378;51.796;5.808;2022-09-09T08:08:07;17.90;99.90
26803;DHT22;14378;51.796;5.808;2022-09-09T08:10:09;17.90;99.90
26803;DHT22;14378;51.796;5.808;2022-09-09T08:12:17;17.90;99.90
26803;DHT22;14378;51.796;5.808;2022-09-09T08:14:22;18.00;99.90
26803;DHT22;14378;51.796;5.808;2022-09-09T08:16:28;17.90;99.90
26803;DHT22;14378;51.796;5.808;2022-09-09T08:18:33;18.00;99.90
26803;DHT22;14378;51.796;5.808;2022-09-09T08:20:36;18.10;99.90
26803;DHT22;14378;51.796;5.808;2022-09-09T08:22:38;18.10;99.90
26803;DHT22;14378;51.796;5.808;2022-09-09T08:24:41;18.10;99.90
26803;DHT22;14378;51.796;5.808;2022-09-09T08:26:46;18.20;99.90
26803;DHT22;14378;51.796;5.808;2022-09-09T08:28:51;18.20;99.90
26803;DHT22;14378;51.796;5.808;2022-09-09T08:30:54;18.20;99.90
26803;DHT22;14378;51.796;5.808;2022-09-09T08:32:57;18.20;99.90
26803;DHT22;14378;51.796;5.808;2022-09-09T08:35:01;18.10;99.90
26803;DHT22;14378;51.796;5.808;2022-09-09T08:37:05;18.10;99.90
26803;DHT22;14378;51.796;5.808;2022-09-09T08:39:18;18.20;99.90
26803;DHT22;14378;51.796;5.808;2022-09-09T08:43:39;18.20;99.90
26803;DHT22;14378;51.796;5.808;2022-09-09T08:50:36;18.40;99.90
26803;DHT22;14378;51.796;5.808;2022-09-09T08:55:20;18.40;99.90
26803;DHT22;14378;51.796;5.808;2022-09-09T08:57:25;18.50;99.90
26803;DHT22;14378;51.796;5.808;2022-09-09T08:59:28;18.50;99.90
26803;DHT22;14378;51.796;5.808;2022-09-09T09:06:15;18.60;99.90
26803;DHT22;14378;51.796;5.808;2022-09-09T09:08:43;18.60;99.90
26803;DHT22;14378;51.796;5.808;2022-09-09T09:10:49;18.60;99.90
26803;DHT22;14378;51.796;5.808;2022-09-09T09:13:01;18.60;99.90
26803;DHT22;14378;51.796;5.808;2022-09-09T09:15:17;18.60;99.90
26803;DHT22;14378;51.796;5.808;2022-09-09T09:17:20;18.70;99.90
26803;DHT22;14378;51.796;5.808;2022-09-09T09:19:24;18.70;99.90
26803;DHT22;14378;51.796;5.808;2022-09-09T09:21:59;18.70;99.90
26803;DHT22;14378;51.796;5.808;2022-09-09T09:24:20;18.80;99.90
26803;DHT22;14378;51.796;5.808;2022-09-09T09:26:30;18.80;99.90
26803;DHT22;14378;51.796;5.808;2022-09-09T09:28:34;18.80;99.90
26803;DHT22;14378;51.796;5.808;2022-09-09T09:30:54;18.80;99.90
26803;DHT22;14378;51.796;5.808;2022-09-09T09:33:45;18.80;99.90
26803;DHT22;14378;51.796;5.808;2022-09-09T09:35:27;18.80;99.90
26803;DHT22;14378;51.796;5.808;2022-09-09T09:37:32;18.90;99.90
26803;DHT22;14378;51.796;5.808;2022-09-09T09:39:37;18.90;99.90
26803;DHT22;14378;51.796;5.808;2022-09-09T09:41:43;18.90;99.90
26803;DHT22;14378;51.796;5.808;2022-09-09T09:43:53;18.90;99.90
26803;DHT22;14378;51.796;5.808;2022-09-09T09:45:55;18.90;99.90
26803;DHT22;14378;51.796;5.808;2022-09-09T09:48:06;18.90;99.90
26803;DHT22;14378;51.796;5.808;2022-09-09T09:50:19;18.80;99.90
26803;DHT22;14378;51.796;5.808;2022-09-09T09:52:26;18.80;99.90
26803;DHT22;14378;51.796;5.808;2022-09-09T09:54:33;18.90;99.90
26803;DHT22;14378;51.796;5.808;2022-09-09T09:56:37;18.90;99.90
26803;DHT22;14378;51.796;5.808;2022-09-09T10:00:52;18.80;99.90
26803;DHT22;14378;51.796;5.808;2022-09-09T10:02:59;18.80;99.90
26803;DHT22;14378;51.796;5.808;2022-09-09T10:05:22;18.80;99.90
26803;DHT22;14378;51.796;5.808;2022-09-09T10:07:25;18.80;99.90
26803;DHT22;14378;51.796;5.808;2022-09-09T10:09:33;18.90;99.90
26803;DHT22;14378;51.796;5.808;2022-09-09T10:11:48;18.90;99.90
26803;DHT22;14378;51.796;5.808;2022-09-09T10:14:15;18.90;99.90
26803;DHT22;14378;51.796;5.808;2022-09-09T10:19:09;19.00;99.90
26803;DHT22;14378;51.796;5.808;2022-09-09T10:26:03;19.00;99.90
26803;DHT22;14378;51.796;5.808;2022-09-09T10:34:57;19.40;99.90
26803;DHT22;14378;51.796;5.808;2022-09-09T10:36:58;19.50;99.90
26803;DHT22;14378;51.796;5.808;2022-09-09T10:39:32;19.50;99.90
26803;DHT22;14378;51.796;5.808;2022-09-09T10:51:15;19.60;99.90
26803;DHT22;14378;51.796;5.808;2022-09-09T10:55:51;19.50;99.90
26803;DHT22;14378;51.796;5.808;2022-09-09T10:57:58;19.40;99.90
26803;DHT22;14378;51.796;5.808;2022-09-09T11:00:05;19.30;99.90
26803;DHT22;14378;51.796;5.808;2022-09-09T11:02:46;19.20;99.90
26803;DHT22;14378;51.796;5.808;2022-09-09T11:05:20;19.20;99.90
26803;DHT22;14378;51.796;5.808;2022-09-09T11:07:44;19.20;99.90
26803;DHT22;14378;51.796;5.808;2022-09-09T11:09:52;19.20;99.90
26803;DHT22;14378;51.796;5.808;2022-09-09T11:11:57;19.20;99.90
26803;DHT22;14378;51.796;5.808;2022-09-09T11:18:42;19.00;99.90
26803;DHT22;14378;51.796;5.808;2022-09-09T11:20:50;18.90;99.90
26803;DHT22;14378;51.796;5.808;2022-09-09T11:23:05;18.90;99.90
26803;DHT22;14378;51.796;5.808;2022-09-09T11:31:58;18.80;99.90
26803;DHT22;14378;51.796;5.808;2022-09-09T11:38:49;18.80;99.90
26803;DHT22;14378;51.796;5.808;2022-09-09T11:41:02;18.80;99.90
26803;DHT22;14378;51.796;5.808;2022-09-09T11:43:22;18.80;99.90
26803;DHT22;14378;51.796;5.808;2022-09-09T11:45:27;18.80;99.90
26803;DHT22;14378;51.796;5.808;2022-09-09T11:47:31;18.80;99.90
26803;DHT22;14378;51.796;5.808;2022-09-09T11:49:42;18.80;99.90
26803;DHT22;14378;51.796;5.808;2022-09-09T11:51:43;18.90;99.90
26803;DHT22;14378;51.796;5.808;2022-09-09T11:58:55;19.00;99.90
26803;DHT22;14378;51.796;5.808;2022-09-09T12:00:57;19.00;99.90
26803;DHT22;14378;51.796;5.808;2022-09-09T12:03:01;19.00;99.90
26803;DHT22;14378;51.796;5.808;2022-09-09T12:05:08;18.90;99.90
26803;DHT22;14378;51.796;5.808;2022-09-09T12:11:40;18.90;99.90
26803;DHT22;14378;51.796;5.808;2022-09-09T12:13:53;19.00;99.90
26803;DHT22;14378;51.796;5.808;2022-09-09T12:15:58;19.00;99.90
26803;DHT22;14378;51.796;5.808;2022-09-09T12:18:01;19.00;99.90
26803;DHT22;14378;51.796;5.808;2022-09-09T12:22:49;19.00;99.90
26803;DHT22;14378;51.796;5.808;2022-09-09T12:25:18;19.00;99.90
26803;DHT22;14378;51.796;5.808;2022-09-09T12:30:09;19.00;99.90
26803;DHT22;14378;51.796;5.808;2022-09-09T12:32:22;19.10;99.90
26803;DHT22;14378;51.796;5.808;2022-09-09T12:34:46;19.20;99.90
26803;DHT22;14378;51.796;5.808;2022-09-09T12:36:55;19.20;99.90
26803;DHT22;14378;51.796;5.808;2022-09-09T12:39:27;19.20;99.90
26803;DHT22;14378;51.796;5.808;2022-09-09T12:41:32;19.20;99.90
26803;DHT22;14378;51.796;5.808;2022-09-09T12:43:34;19.10;99.90
26803;DHT22;14378;51.796;5.808;2022-09-09T12:45:40;19.00;99.90
26803;DHT22;14378;51.796;5.808;2022-09-09T12:49:55;19.10;99.90
26803;DHT22;14378;51.796;5.808;2022-09-09T12:51:57;19.20;99.90
26803;DHT22;14378;51.796;5.808;2022-09-09T12:54:00;19.20;99.90
26803;DHT22;14378;51.796;5.808;2022-09-09T12:56:08;19.30;99.90
26803;DHT22;14378;51.796;5.808;2022-09-09T12:58:13;19.30;99.90
26803;DHT22;14378;51.796;5.808;2022-09-09T13:00:22;19.40;99.90
26803;DHT22;14378;51.796;5.808;2022-09-09T13:02:26;19.50;99.90
26803;DHT22;14378;51.796;5.808;2022-09-09T13:04:39;19.60;99.90
26803;DHT22;14378;51.796;5.808;2022-09-09T13:07:06;19.70;99.90
26803;DHT22;14378;51.796;5.808;2022-09-09T13:09:09;19.80;99.90
26803;DHT22;14378;51.796;5.808;2022-09-09T13:11:14;19.80;99.90
26803;DHT22;14378;51.796;5.808;2022-09-09T13:13:21;19.80;99.90
26803;DHT22;14378;51.796;5.808;2022-09-09T13:15:24;19.90;99.90
26803;DHT22;14378;51.796;5.808;2022-09-09T13:17:28;19.90;99.90
26803;DHT22;14378;51.796;5.808;2022-09-09T13:19:38;20.00;99.90
26803;DHT22;14378;51.796;5.808;2022-09-09T13:21:46;20.10;99.90
26803;DHT22;14378;51.796;5.808;2022-09-09T13:23:50;20.10;99.90
26803;DHT22;14378;51.796;5.808;2022-09-09T13:25:56;20.20;99.90
26803;DHT22;14378;51.796;5.808;2022-09-09T13:27:58;20.20;99.90
26803;DHT22;14378;51.796;5.808;2022-09-09T13:30:01;20.20;99.90
26803;DHT22;14378;51.796;5.808;2022-09-09T13:32:06;20.20;99.90
26803;DHT22;14378;51.796;5.808;2022-09-09T13:34:22;20.10;99.90
26803;DHT22;14378;51.796;5.808;2022-09-09T13:36:30;20.00;99.90
26803;DHT22;14378;51.796;5.808;2022-09-09T13:38:54;19.90;99.90
26803;DHT22;14378;51.796;5.808;2022-09-09T13:40:58;19.70;99.90
26803;DHT22;14378;51.796;5.808;2022-09-09T13:43:14;19.50;99.90
26803;DHT22;14378;51.796;5.808;2022-09-09T13:45:22;19.30;99.90
26803;DHT22;14378;51.796;5.808;2022-09-09T13:47:35;19.20;99.90
26803;DHT22;14378;51.796;5.808;2022-09-09T13:50:23;19.20;99.90
26803;DHT22;14378;51.796;5.808;2022-09-09T13:52:27;19.00;99.90
26803;DHT22;14378;51.796;5.808;2022-09-09T13:54:32;18.90;99.90
26803;DHT22;14378;51.796;5.808;2022-09-09T13:56:37;18.90;99.90
26803;DHT22;14378;51.796;5.808;2022-09-09T13:58:40;18.90;99.90
26803;DHT22;14378;51.796;5.808;2022-09-09T14:00:41;19.00;99.90
26803;DHT22;14378;51.796;5.808;2022-09-09T14:02:42;19.00;99.90
26803;DHT22;14378;51.796;5.808;2022-09-09T14:04:45;19.10;99.90
26803;DHT22;14378;51.796;5.808;2022-09-09T14:06:46;19.20;99.90
26803;DHT22;14378;51.796;5.808;2022-09-09T14:08:49;19.30;99.90
26803;DHT22;14378;51.796;5.808;2022-09-09T14:11:03;19.40;99.90
26803;DHT22;14378;51.796;5.808;2022-09-09T14:13:05;19.60;99.90
26803;DHT22;14378;51.796;5.808;2022-09-09T14:15:10;19.80;99.90
26803;DHT22;14378;51.796;5.808;2022-09-09T14:17:12;19.90;99.90
26803;DHT22;14378;51.796;5.808;2022-09-09T14:19:13;20.00;99.90
26803;DHT22;14378;51.796;5.808;2022-09-09T14:21:17;20.10;99.90
26803;DHT22;14378;51.796;5.808;2022-09-09T14:23:26;20.30;99.90
26803;DHT22;14378;51.796;5.808;2022-09-09T14:25:28;20.40;99.90
26803;DHT22;14378;51.796;5.808;2022-09-09T14:27:29;20.50;99.90
26803;DHT22;14378;51.796;5.808;2022-09-09T14:29:31;20.60;99.90
26803;DHT22;14378;51.796;5.808;2022-09-09T14:31:39;20.60;99.90
26803;DHT22;14378;51.796;5.808;2022-09-09T14:33:47;20.60;99.90
26803;DHT22;14378;51.796;5.808;2022-09-09T14:35:59;20.70;99.90
26803;DHT22;14378;51.796;5.808;2022-09-09T14:38:15;20.60;99.90
26803;DHT22;14378;51.796;5.808;2022-09-09T14:40:26;20.70;99.90
26803;DHT22;14378;51.796;5.808;2022-09-09T14:42:29;20.60;99.90
26803;DHT22;14378;51.796;5.808;2022-09-09T14:44:33;20.50;99.90
26803;DHT22;14378;51.796;5.808;2022-09-09T14:46:41;20.50;99.90
26803;DHT22;14378;51.796;5.808;2022-09-09T14:48:53;20.50;99.90
26803;DHT22;14378;51.796;5.808;2022-09-09T14:50:54;20.50;99.90
26803;DHT22;14378;51.796;5.808;2022-09-09T14:52:56;20.50;99.90
26803;DHT22;14378;51.796;5.808;2022-09-09T14:55:06;20.50;99.90
26803;DHT22;14378;51.796;5.808;2022-09-09T14:57:09;20.50;99.90
26803;DHT22;14378;51.796;5.808;2022-09-09T14:59:10;20.50;99.90
26803;DHT22;14378;51.796;5.808;2022-09-09T15:01:13;20.50;99.90
26803;DHT22;14378;51.796;5.808;2022-09-09T15:03:14;20.50;99.90
26803;DHT22;14378;51.796;5.808;2022-09-09T15:05:18;20.50;99.90
26803;DHT22;14378;51.796;5.808;2022-09-09T15:07:20;20.40;99.90
26803;DHT22;14378;51.796;5.808;2022-09-09T15:09:26;20.40;99.90
26803;DHT22;14378;51.796;5.808;2022-09-09T15:11:30;20.30;99.90
26803;DHT22;14378;51.796;5.808;2022-09-09T15:13:34;20.30;99.90
26803;DHT22;14378;51.796;5.808;2022-09-09T15:15:39;20.20;99.90
26803;DHT22;14378;51.796;5.808;2022-09-09T15:17:42;20.20;99.90
26803;DHT22;14378;51.796;5.808;2022-09-09T15:19:43;20.10;99.90
26803;DHT22;14378;51.796;5.808;2022-09-09T15:21:44;20.10;99.90
26803;DHT22;14378;51.796;5.808;2022-09-09T15:23:46;20.20;99.90
26803;DHT22;14378;51.796;5.808;2022-09-09T15:25:54;20.20;99.90
26803;DHT22;14378;51.796;5.808;2022-09-09T15:27:55;20.10;99.90
26803;DHT22;14378;51.796;5.808;2022-09-09T15:29:57;20.10;99.90